createdAt,value
2023-03-24T00:00:29.181Z,0.00
2023-03-24T00:01:29.182Z,0.00
2023-03-24T00:02:29.272Z,0.00
2023-03-24T00:03:29.256Z,0.00
2023-03-24T00:04:29.193Z,0.00
2023-03-24T00:05:29.113Z,0.00
2023-03-24T00:06:29.112Z,0.00
2023-03-24T00:07:29.706Z,0.00
2023-03-24T00:08:29.097Z,0.00
2023-03-24T00:09:29.094Z,0.00
2023-03-24T00:10:29.058Z,0.00
2023-03-24T00:11:29.081Z,0.00
2023-03-24T00:12:29.042Z,0.00
2023-03-24T00:13:29.068Z,0.00
2023-03-24T00:14:29.013Z,0.00
2023-03-24T00:15:29.008Z,0.00
2023-03-24T00:16:28.977Z,0.00
2023-03-24T00:17:28.997Z,0.00
2023-03-24T00:18:28.958Z,0.00
2023-03-24T00:19:28.964Z,0.00
2023-03-24T00:20:28.929Z,0.00
2023-03-24T00:21:28.940Z,0.00
2023-03-24T00:22:28.921Z,0.00
2023-03-24T00:23:28.898Z,0.00
2023-03-24T00:24:28.913Z,0.00
2023-03-24T00:25:28.901Z,0.00
2023-03-24T00:26:28.866Z,0.00
2023-03-24T00:27:28.850Z,0.00
2023-03-24T00:28:28.865Z,0.00
2023-03-24T00:29:28.838Z,0.00
2023-03-24T00:30:28.832Z,0.00
2023-03-24T00:31:28.805Z,0.00
2023-03-24T00:32:28.802Z,0.00
2023-03-24T00:33:28.769Z,0.00
2023-03-24T00:34:28.781Z,0.00
2023-03-24T00:35:28.814Z,0.00
2023-03-24T00:36:28.722Z,0.00
2023-03-24T00:37:28.729Z,0.00
2023-03-24T00:38:28.715Z,0.00
2023-03-24T00:39:28.694Z,0.00
2023-03-24T00:40:28.678Z,0.00
2023-03-24T00:41:28.677Z,0.00
2023-03-24T00:42:28.653Z,0.00
2023-03-24T00:43:28.664Z,0.00
2023-03-24T00:44:28.653Z,0.00
2023-03-24T00:45:28.637Z,0.00
2023-03-24T00:46:28.976Z,0.00
2023-03-24T00:47:28.635Z,0.00
2023-03-24T00:48:28.587Z,0.00
2023-03-24T00:49:28.584Z,0.00
2023-03-24T00:50:28.570Z,0.00
2023-03-24T00:51:28.561Z,0.00
2023-03-24T00:52:28.523Z,0.00
2023-03-24T00:53:28.506Z,0.00
2023-03-24T00:54:28.509Z,0.00
2023-03-24T00:55:28.764Z,0.00
2023-03-24T00:56:28.567Z,0.00
2023-03-24T00:57:28.491Z,0.00
2023-03-24T00:58:28.442Z,0.00
2023-03-24T00:59:28.452Z,0.00
2023-03-24T01:00:28.503Z,0.00
2023-03-24T01:01:28.434Z,0.00
2023-03-24T01:02:28.515Z,0.00
2023-03-24T01:03:28.413Z,0.00
2023-03-24T01:04:28.372Z,0.00
2023-03-24T01:05:28.549Z,0.00
2023-03-24T01:06:28.383Z,0.00
2023-03-24T01:07:28.377Z,0.00
2023-03-24T01:08:28.310Z,0.00
2023-03-24T01:09:28.316Z,0.00
2023-03-24T01:10:28.287Z,0.00
2023-03-24T01:11:28.293Z,0.00
2023-03-24T01:12:28.277Z,0.00
2023-03-24T01:13:28.249Z,0.00
2023-03-24T01:14:28.245Z,0.00
2023-03-24T01:15:28.238Z,0.00
2023-03-24T01:16:28.259Z,0.00
2023-03-24T01:17:28.259Z,0.00
2023-03-24T01:18:28.203Z,0.00
2023-03-24T01:19:28.189Z,0.00
2023-03-24T01:20:28.169Z,0.00
2023-03-24T01:21:28.148Z,0.00
2023-03-24T01:22:28.145Z,0.00
2023-03-24T01:23:28.175Z,0.00
2023-03-24T01:24:28.153Z,0.00
2023-03-24T01:25:28.104Z,0.00
2023-03-24T01:26:28.096Z,0.00
2023-03-24T01:27:28.091Z,0.00
2023-03-24T01:28:28.047Z,0.00
2023-03-24T01:29:28.073Z,0.00
2023-03-24T01:30:28.027Z,0.00
2023-03-24T01:31:28.078Z,0.00
2023-03-24T01:32:28.037Z,0.00
2023-03-24T01:33:28.008Z,0.00
2023-03-24T01:34:27.998Z,0.00
2023-03-24T01:35:29.484Z,0.00
2023-03-24T01:36:27.969Z,0.00
2023-03-24T01:37:27.949Z,0.00
2023-03-24T01:38:27.925Z,0.00
2023-03-24T01:39:27.936Z,0.00
2023-03-24T01:40:27.892Z,0.00
2023-03-24T01:41:27.894Z,0.00
2023-03-24T01:42:27.893Z,0.00
2023-03-24T01:43:27.890Z,0.00
2023-03-24T01:44:27.848Z,0.00
2023-03-24T01:45:27.866Z,0.00
2023-03-24T01:46:28.009Z,0.00
2023-03-24T01:47:27.870Z,0.00
2023-03-24T01:48:27.820Z,0.00
2023-03-24T01:49:27.792Z,0.00
2023-03-24T01:50:27.806Z,0.00
2023-03-24T01:51:27.762Z,0.00
2023-03-24T01:52:27.761Z,0.00
2023-03-24T01:53:27.819Z,0.00
2023-03-24T01:54:27.720Z,0.00
2023-03-24T01:55:27.736Z,0.00
2023-03-24T01:56:27.776Z,0.00
2023-03-24T01:57:27.700Z,0.00
2023-03-24T01:58:27.674Z,0.00
2023-03-24T01:59:27.658Z,0.00
2023-03-24T02:00:27.664Z,0.00
2023-03-24T02:01:27.665Z,0.00
2023-03-24T02:02:27.633Z,0.00
2023-03-24T02:03:27.599Z,0.00
2023-03-24T02:04:27.608Z,0.00
2023-03-24T02:05:27.604Z,0.00
2023-03-24T02:06:27.583Z,0.00
2023-03-24T02:07:27.563Z,0.00
2023-03-24T02:08:27.550Z,0.00
2023-03-24T02:09:27.555Z,0.00
2023-03-24T02:10:27.525Z,0.00
2023-03-24T02:11:27.504Z,0.00
2023-03-24T02:12:27.498Z,0.00
2023-03-24T02:13:27.480Z,0.00
2023-03-24T02:14:27.490Z,0.00
2023-03-24T02:15:27.477Z,0.00
2023-03-24T02:16:27.483Z,0.00
2023-03-24T02:17:27.465Z,0.00
2023-03-24T02:18:27.418Z,0.00
2023-03-24T02:19:27.397Z,0.00
2023-03-24T02:20:27.441Z,0.00
2023-03-24T02:21:27.365Z,0.00
2023-03-24T02:22:27.405Z,0.00
2023-03-24T02:23:27.352Z,0.00
2023-03-24T02:24:27.353Z,0.00
2023-03-24T02:25:27.327Z,0.00
2023-03-24T02:26:27.354Z,0.00
2023-03-24T02:27:27.296Z,0.00
2023-03-24T02:28:27.296Z,0.00
2023-03-24T02:29:27.276Z,0.00
2023-03-24T02:30:27.280Z,0.00
2023-03-24T02:31:27.316Z,0.00
2023-03-24T02:32:27.245Z,0.00
2023-03-24T02:33:27.219Z,0.00
2023-03-24T02:34:27.216Z,0.00
2023-03-24T02:35:27.202Z,0.00
2023-03-24T02:36:27.198Z,0.00
2023-03-24T02:37:27.201Z,0.00
2023-03-24T02:38:27.147Z,0.00
2023-03-24T02:39:27.156Z,0.00
2023-03-24T02:40:27.171Z,0.00
2023-03-24T02:41:27.129Z,0.00
2023-03-24T02:42:27.119Z,0.00
2023-03-24T02:43:27.136Z,0.00
2023-03-24T02:44:27.082Z,0.00
2023-03-24T02:45:27.071Z,0.00
2023-03-24T02:46:27.057Z,0.00
2023-03-24T02:47:27.087Z,0.00
2023-03-24T02:48:27.064Z,0.00
2023-03-24T02:49:27.027Z,0.00
2023-03-24T02:50:27.039Z,0.00
2023-03-24T02:51:26.981Z,0.00
2023-03-24T02:52:26.987Z,0.00
2023-03-24T02:53:26.996Z,0.00
2023-03-24T02:54:26.955Z,0.00
2023-03-24T02:55:26.944Z,0.00
2023-03-24T02:56:26.974Z,0.00
2023-03-24T02:57:26.907Z,0.00
2023-03-24T02:58:26.928Z,0.00
2023-03-24T02:59:26.894Z,0.00
2023-03-24T03:00:26.879Z,0.00
2023-03-24T03:01:26.894Z,0.00
2023-03-24T03:02:26.870Z,0.00
2023-03-24T03:03:26.817Z,0.00
2023-03-24T03:04:29.317Z,0.00
2023-03-24T03:05:26.835Z,0.00
2023-03-24T03:06:26.799Z,0.00
2023-03-24T03:07:26.804Z,0.00
2023-03-24T03:08:26.783Z,0.00
2023-03-24T03:09:26.733Z,0.00
2023-03-24T03:10:26.755Z,0.00
2023-03-24T03:11:26.742Z,0.00
2023-03-24T03:12:26.730Z,0.00
2023-03-24T03:13:26.720Z,0.00
2023-03-24T03:14:26.679Z,0.00
2023-03-24T03:15:26.695Z,0.00
2023-03-24T03:16:26.648Z,0.00
2023-03-24T03:17:26.733Z,0.00
2023-03-24T03:18:26.666Z,0.00
2023-03-24T03:19:26.621Z,0.00
2023-03-24T03:20:26.649Z,0.00
2023-03-24T03:21:26.599Z,0.00
2023-03-24T03:22:26.590Z,0.00
2023-03-24T03:23:26.563Z,0.00
2023-03-24T03:24:26.750Z,0.00
2023-03-24T03:25:26.549Z,0.00
2023-03-24T03:26:26.539Z,0.00
2023-03-24T03:27:26.539Z,0.00
2023-03-24T03:28:26.516Z,0.00
2023-03-24T03:29:26.518Z,0.00
2023-03-24T03:30:26.503Z,0.00
2023-03-24T03:31:26.538Z,0.00
2023-03-24T03:32:26.483Z,0.00
2023-03-24T03:33:26.455Z,0.00
2023-03-24T03:34:26.428Z,0.00
2023-03-24T03:35:26.450Z,0.00
2023-03-24T03:36:26.411Z,0.00
2023-03-24T03:37:26.401Z,0.00
2023-03-24T03:38:26.389Z,0.00
2023-03-24T03:39:26.365Z,0.00
2023-03-24T03:40:26.385Z,0.00
2023-03-24T03:41:26.344Z,0.00
2023-03-24T03:42:26.338Z,0.00
2023-03-24T03:43:26.300Z,0.00
2023-03-24T03:44:26.316Z,0.00
2023-03-24T03:45:26.320Z,0.00
2023-03-24T03:46:26.374Z,0.00
2023-03-24T03:47:26.287Z,0.00
2023-03-24T03:48:26.328Z,0.00
2023-03-24T03:49:26.247Z,0.00
2023-03-24T04:03:00.848Z,0.00
2023-03-24T04:04:00.761Z,0.00
2023-03-24T04:05:06.400Z,0.00
2023-03-24T04:06:01.743Z,0.00
2023-03-24T04:07:00.699Z,0.00
2023-03-24T04:08:00.694Z,0.00
2023-03-24T04:09:00.669Z,0.00
2023-03-24T04:10:00.680Z,0.00
2023-03-24T04:11:00.669Z,0.00
2023-03-24T04:12:00.644Z,0.00
2023-03-24T04:13:00.622Z,0.00
2023-03-24T04:14:00.613Z,0.00
2023-03-24T04:15:08.097Z,0.00
2023-03-24T04:16:00.631Z,0.00
2023-03-24T04:17:00.574Z,0.00
2023-03-24T04:18:00.599Z,0.00
2023-03-24T04:19:00.551Z,0.00
2023-03-24T04:20:00.536Z,0.00
2023-03-24T04:21:00.526Z,0.00
2023-03-24T04:22:00.518Z,0.00
2023-03-24T04:23:00.520Z,0.00
2023-03-24T04:24:00.476Z,0.00
2023-03-24T04:25:00.460Z,0.00
2023-03-24T04:26:00.454Z,0.00
2023-03-24T04:27:00.463Z,0.00
2023-03-24T04:28:00.458Z,0.00
2023-03-24T04:29:00.511Z,0.00
2023-03-24T04:30:00.410Z,0.00
2023-03-24T04:31:00.463Z,0.00
2023-03-24T04:32:00.412Z,0.00
2023-03-24T04:33:00.401Z,0.00
2023-03-24T04:34:00.364Z,0.00
2023-03-24T04:35:00.344Z,0.00
2023-03-24T04:36:00.392Z,0.00
2023-03-24T04:37:00.315Z,0.00
2023-03-24T04:38:00.304Z,0.00
2023-03-24T04:39:00.284Z,0.00
2023-03-24T04:40:00.272Z,0.00
2023-03-24T04:41:00.261Z,0.00
2023-03-24T04:42:00.265Z,0.00
2023-03-24T04:43:00.239Z,0.00
2023-03-24T04:44:00.207Z,0.00
2023-03-24T04:45:00.204Z,0.00
2023-03-24T04:46:00.272Z,0.00
2023-03-24T04:47:00.192Z,0.00
2023-03-24T04:48:00.257Z,0.00
2023-03-24T04:49:00.156Z,0.00
2023-03-24T04:50:00.204Z,0.00
2023-03-24T04:51:00.171Z,0.00
2023-03-24T04:52:00.132Z,0.00
2023-03-24T04:53:00.142Z,0.00
2023-03-24T04:54:00.115Z,0.00
2023-03-24T04:55:00.127Z,0.00
2023-03-24T04:56:00.101Z,0.00
2023-03-24T04:57:00.100Z,0.00
2023-03-24T04:58:00.057Z,0.00
2023-03-24T04:59:00.058Z,4.00
2023-03-24T05:00:00.015Z,4.00
2023-03-24T05:01:00.046Z,4.00
2023-03-24T05:02:00.005Z,0.00
2023-03-24T05:03:00.044Z,4.00
2023-03-24T05:04:00.011Z,4.00
2023-03-24T05:04:59.945Z,4.00
2023-03-24T05:05:59.985Z,4.00
2023-03-24T05:06:59.920Z,4.00
2023-03-24T05:07:59.909Z,4.00
2023-03-24T05:08:59.922Z,4.00
2023-03-24T05:09:59.915Z,8.00
2023-03-24T05:10:59.874Z,4.00
2023-03-24T05:12:01.503Z,8.00
2023-03-24T05:12:59.842Z,8.00
2023-03-24T05:13:59.860Z,12.00
2023-03-24T05:14:59.821Z,12.00
2023-03-24T05:15:59.826Z,16.00
2023-03-24T05:16:59.810Z,12.00
2023-03-24T05:17:59.807Z,16.00
2023-03-24T05:18:59.773Z,16.00
2023-03-24T05:19:59.769Z,16.00
2023-03-24T05:20:59.742Z,16.00
2023-03-24T05:21:59.730Z,12.00
2023-03-24T05:22:59.719Z,16.00
2023-03-24T05:23:59.712Z,16.00
2023-03-24T05:24:59.687Z,20.00
2023-03-24T05:25:59.670Z,24.00
2023-03-24T05:26:59.658Z,28.00
2023-03-24T05:27:59.653Z,36.00
2023-03-24T05:28:59.646Z,36.00
2023-03-24T05:29:59.638Z,40.00
2023-03-24T05:30:59.625Z,44.00
2023-03-24T05:31:59.592Z,48.00
2023-03-24T05:32:59.625Z,52.00
2023-03-24T05:33:59.582Z,64.00
2023-03-24T05:34:59.590Z,76.00
2023-03-24T05:35:59.577Z,84.00
2023-03-24T05:36:59.553Z,80.00
2023-03-24T05:37:59.528Z,76.00
2023-03-24T05:38:59.504Z,76.00
2023-03-24T05:39:59.510Z,96.00
2023-03-24T05:40:59.492Z,112.00
2023-03-24T05:41:59.472Z,132.00
2023-03-24T05:42:59.459Z,148.00
2023-03-24T05:43:59.460Z,160.00
2023-03-24T05:44:59.428Z,172.00
2023-03-24T05:45:59.426Z,180.00
2023-03-24T05:46:59.440Z,188.00
2023-03-24T05:47:59.421Z,184.00
2023-03-24T05:48:59.389Z,180.00
2023-03-24T05:49:59.377Z,172.00
2023-03-24T05:50:59.343Z,152.00
2023-03-24T05:51:59.351Z,124.00
2023-03-24T05:52:59.344Z,112.00
2023-03-24T05:53:59.320Z,116.00
2023-03-24T05:54:59.308Z,128.00
2023-03-24T05:55:59.278Z,148.00
2023-03-24T05:56:59.372Z,168.00
2023-03-24T05:58:00.367Z,176.00
2023-03-24T05:58:59.246Z,164.00
2023-03-24T05:59:59.233Z,168.00
2023-03-24T06:00:59.233Z,156.00
2023-03-24T06:01:59.379Z,144.00
2023-03-24T06:02:59.332Z,136.00
2023-03-24T06:03:59.246Z,140.00
2023-03-24T06:04:59.179Z,148.00
2023-03-24T06:05:59.153Z,152.00
2023-03-24T06:06:59.164Z,160.00
2023-03-24T06:07:59.132Z,168.00
2023-03-24T06:08:59.118Z,164.00
2023-03-24T06:09:59.089Z,156.00
2023-03-24T06:10:59.102Z,152.00
2023-03-24T06:11:59.086Z,152.00
2023-03-24T06:12:59.065Z,160.00
2023-03-24T06:13:59.089Z,176.00
2023-03-24T06:14:59.044Z,192.00
2023-03-24T06:16:01.490Z,188.00
2023-03-24T06:16:59.032Z,188.00
2023-03-24T06:17:59.037Z,220.00
2023-03-24T06:18:58.989Z,232.00
2023-03-24T06:19:58.958Z,216.00
2023-03-24T06:20:58.985Z,208.00
2023-03-24T06:21:58.962Z,228.00
2023-03-24T06:22:58.973Z,224.00
2023-03-24T06:23:58.945Z,200.00
2023-03-24T06:24:58.953Z,184.00
2023-03-24T06:25:58.897Z,192.00
2023-03-24T06:26:58.937Z,208.00
2023-03-24T06:27:58.874Z,224.00
2023-03-24T06:28:58.876Z,188.00
2023-03-24T06:29:58.866Z,152.00
2023-03-24T06:30:59.071Z,144.00
2023-03-24T06:31:58.842Z,144.00
2023-03-24T06:32:58.843Z,136.00
2023-03-24T06:33:58.794Z,132.00
2023-03-24T06:34:58.826Z,112.00
2023-03-24T06:35:58.780Z,92.00
2023-03-24T06:36:58.774Z,76.00
2023-03-24T06:37:58.751Z,76.00
2023-03-24T06:38:58.751Z,84.00
2023-03-24T06:39:58.735Z,96.00
2023-03-24T06:40:58.718Z,100.00
2023-03-24T06:41:58.715Z,100.00
2023-03-24T06:42:58.692Z,96.00
2023-03-24T06:43:58.683Z,80.00
2023-03-24T06:44:58.686Z,76.00
2023-03-24T06:45:58.707Z,84.00
2023-03-24T06:46:58.645Z,84.00
2023-03-24T06:47:58.689Z,92.00
2023-03-24T06:48:58.609Z,84.00
2023-03-24T06:49:58.621Z,84.00
2023-03-24T06:50:58.580Z,84.00
2023-03-24T06:51:58.588Z,92.00
2023-03-24T06:52:58.554Z,112.00
2023-03-24T06:53:58.551Z,104.00
2023-03-24T06:54:58.552Z,100.00
2023-03-24T06:55:58.565Z,96.00
2023-03-24T06:56:58.563Z,116.00
2023-03-24T06:57:58.484Z,148.00
2023-03-24T06:58:58.499Z,184.00
2023-03-24T06:59:58.498Z,220.00
2023-03-24T07:00:58.461Z,272.00
2023-03-24T07:01:58.486Z,372.00
2023-03-24T07:02:58.546Z,472.00
2023-03-24T07:03:58.456Z,560.00
2023-03-24T07:04:58.430Z,672.00
2023-03-24T07:05:58.379Z,672.00
2023-03-24T07:07:12.475Z,636.00
2023-03-24T07:08:58.373Z,536.00
2023-03-24T07:09:58.369Z,432.00
2023-03-24T07:10:58.334Z,464.00
2023-03-24T07:11:58.312Z,484.00
2023-03-24T07:12:58.374Z,524.00
2023-03-24T07:13:58.283Z,452.00
2023-03-24T07:14:58.294Z,408.00
2023-03-24T07:15:58.280Z,420.00
2023-03-24T07:16:58.276Z,436.00
2023-03-24T07:17:58.332Z,392.00
2023-03-24T07:18:58.264Z,500.00
2023-03-24T07:19:58.218Z,448.00
2023-03-24T07:20:58.197Z,440.00
2023-03-24T07:21:58.189Z,460.00
2023-03-24T07:22:58.190Z,372.00
2023-03-24T07:23:58.173Z,300.00
2023-03-24T07:24:58.191Z,392.00
2023-03-24T07:25:58.136Z,392.00
2023-03-24T07:26:58.149Z,364.00
2023-03-24T07:27:58.343Z,524.00
2023-03-24T07:28:58.112Z,600.00
2023-03-24T07:29:58.080Z,556.00
2023-03-24T07:30:58.361Z,644.00
2023-03-24T07:31:58.109Z,716.00
2023-03-24T07:32:58.180Z,588.00
2023-03-24T07:34:00.393Z,624.00
2023-03-24T07:34:58.039Z,672.00
2023-03-24T07:35:58.028Z,524.00
2023-03-24T07:36:59.580Z,416.00
2023-03-24T07:37:57.988Z,408.00
2023-03-24T07:38:57.974Z,328.00
2023-03-24T07:39:57.946Z,252.00
2023-03-24T07:40:57.959Z,216.00
2023-03-24T07:41:57.937Z,236.00
2023-03-24T07:42:57.938Z,264.00
2023-03-24T07:43:57.897Z,296.00
2023-03-24T07:44:57.913Z,396.00
2023-03-24T07:45:57.987Z,484.00
2023-03-24T07:46:57.886Z,520.00
2023-03-24T07:47:57.916Z,556.00
2023-03-24T07:49:03.197Z,556.00
2023-03-24T07:49:58.819Z,580.00
2023-03-24T07:50:57.817Z,548.00
2023-03-24T07:51:57.808Z,556.00
2023-03-24T07:53:00.049Z,572.00
2023-03-24T07:53:57.815Z,564.00
2023-03-24T07:54:57.777Z,516.00
2023-03-24T07:55:57.763Z,432.00
2023-03-24T07:56:57.856Z,372.00
2023-03-24T07:57:57.742Z,348.00
2023-03-24T07:58:57.782Z,392.00
2023-03-24T07:59:57.705Z,484.00
2023-03-24T08:00:57.692Z,600.00
2023-03-24T08:01:59.382Z,684.00
2023-03-24T08:02:57.862Z,704.00
2023-03-24T08:03:57.725Z,664.00
2023-03-24T08:04:57.657Z,692.00
2023-03-24T08:05:57.624Z,748.00
2023-03-24T08:06:57.626Z,732.00
2023-03-24T08:07:57.595Z,644.00
2023-03-24T08:08:57.622Z,608.00
2023-03-24T08:09:57.568Z,532.00
2023-03-24T08:10:57.569Z,496.00
2023-03-24T08:12:00.529Z,520.00
2023-03-24T08:12:58.547Z,556.00
2023-03-24T08:13:57.537Z,572.00
2023-03-24T08:14:57.542Z,652.00
2023-03-24T08:15:57.504Z,756.00
2023-03-24T08:16:57.535Z,744.00
2023-03-24T08:17:57.514Z,700.00
2023-03-24T08:18:57.478Z,668.00
2023-03-24T08:20:00.967Z,608.00
2023-03-24T08:20:57.452Z,572.00
2023-03-24T08:21:57.422Z,584.00
2023-03-24T08:22:57.442Z,612.00
2023-03-24T08:23:57.407Z,580.00
2023-03-24T08:24:57.397Z,560.00
2023-03-24T08:25:57.379Z,592.00
2023-03-24T08:26:57.378Z,656.00
2023-03-24T08:27:57.349Z,720.00
2023-03-24T08:28:57.349Z,748.00
2023-03-24T08:29:57.338Z,740.00
2023-03-24T08:30:57.340Z,728.00
2023-03-24T08:31:57.300Z,592.00
2023-03-24T08:32:57.333Z,504.00
2023-03-24T08:33:57.275Z,448.00
2023-03-24T08:34:57.296Z,420.00
2023-03-24T08:35:57.247Z,416.00
2023-03-24T08:36:57.256Z,436.00
2023-03-24T08:37:57.231Z,484.00
2023-03-24T08:38:57.221Z,572.00
2023-03-24T08:39:57.302Z,620.00
2023-03-24T08:40:57.214Z,588.00
2023-03-24T08:41:57.182Z,500.00
2023-03-24T08:42:57.159Z,464.00
2023-03-24T08:43:57.184Z,448.00
2023-03-24T08:44:57.154Z,424.00
2023-03-24T08:45:57.150Z,452.00
2023-03-24T08:46:57.147Z,540.00
2023-03-24T08:47:57.190Z,636.00
2023-03-24T08:48:57.074Z,660.00
2023-03-24T08:49:57.068Z,624.00
2023-03-24T08:50:57.079Z,616.00
2023-03-24T08:51:57.030Z,600.00
2023-03-24T08:52:57.055Z,604.00
2023-03-24T08:53:57.022Z,644.00
2023-03-24T08:54:57.032Z,684.00
2023-03-24T08:55:56.996Z,600.00
2023-03-24T08:56:57.028Z,608.00
2023-03-24T08:57:56.983Z,616.00
2023-03-24T08:58:56.946Z,668.00
2023-03-24T08:59:56.969Z,652.00
2023-03-24T09:00:56.915Z,580.00
2023-03-24T09:01:56.952Z,536.00
2023-03-24T09:02:56.976Z,496.00
2023-03-24T09:03:56.909Z,516.00
2023-03-24T09:04:56.924Z,504.00
2023-03-24T09:05:57.012Z,580.00
2023-03-24T09:06:56.856Z,588.00
2023-03-24T09:07:56.837Z,572.00
2023-03-24T09:08:56.824Z,540.00
2023-03-24T09:09:56.796Z,548.00
2023-03-24T09:10:56.793Z,576.00
2023-03-24T09:11:56.797Z,628.00
2023-03-24T09:12:56.786Z,708.00
2023-03-24T09:13:56.744Z,684.00
2023-03-24T09:14:56.754Z,544.00
2023-03-24T09:15:56.757Z,500.00
2023-03-24T09:16:56.726Z,496.00
2023-03-24T09:17:56.744Z,532.00
2023-03-24T09:18:56.687Z,544.00
2023-03-24T09:19:56.674Z,616.00
2023-03-24T09:20:56.686Z,628.00
2023-03-24T09:21:56.661Z,540.00
2023-03-24T09:22:56.668Z,512.00
2023-03-24T09:23:56.629Z,556.00
2023-03-24T09:24:56.640Z,552.00
2023-03-24T09:25:56.616Z,548.00
2023-03-24T09:26:56.594Z,560.00
2023-03-24T09:27:56.560Z,540.00
2023-03-24T09:28:56.565Z,508.00
2023-03-24T09:29:56.569Z,496.00
2023-03-24T09:30:56.593Z,508.00
2023-03-24T09:31:56.506Z,532.00
2023-03-24T09:32:56.523Z,548.00
2023-03-24T09:33:56.500Z,568.00
2023-03-24T09:34:56.511Z,560.00
2023-03-24T09:35:58.402Z,556.00
2023-03-24T09:36:56.458Z,568.00
2023-03-24T09:37:56.456Z,592.00
2023-03-24T09:38:56.438Z,620.00
2023-03-24T09:39:56.422Z,652.00
2023-03-24T09:40:56.432Z,680.00
2023-03-24T09:41:56.441Z,704.00
2023-03-24T09:42:56.403Z,708.00
2023-03-24T09:43:56.380Z,704.00
2023-03-24T09:44:56.383Z,724.00
2023-03-24T09:45:56.361Z,760.00
2023-03-24T09:46:56.363Z,828.00
2023-03-24T10:03:13.399Z,1728.00
2023-03-24T10:04:13.496Z,1860.00
2023-03-24T10:05:13.334Z,1968.00
2023-03-24T10:06:13.370Z,1908.00
2023-03-24T10:07:13.325Z,1708.00
2023-03-24T10:08:13.310Z,1676.00
2023-03-24T10:09:13.276Z,1868.00
2023-03-24T10:10:13.272Z,1972.00
2023-03-24T10:11:13.277Z,2044.00
2023-03-24T10:12:13.251Z,2200.00
2023-03-24T10:13:13.223Z,2244.00
2023-03-24T10:14:13.229Z,2192.00
2023-03-24T10:15:13.442Z,2136.00
2023-03-24T10:16:13.277Z,2184.00
2023-03-24T10:17:13.186Z,2172.00
2023-03-24T10:18:13.201Z,2164.00
2023-03-24T10:19:13.166Z,1652.00
2023-03-24T10:20:13.152Z,1360.00
2023-03-24T10:21:13.137Z,1292.00
2023-03-24T10:22:13.188Z,1624.00
2023-03-24T10:23:13.090Z,2176.00
2023-03-24T10:24:13.094Z,2060.00
2023-03-24T10:25:13.202Z,1996.00
2023-03-24T10:26:13.081Z,2184.00
2023-03-24T10:27:13.044Z,2292.00
2023-03-24T10:28:13.043Z,2224.00
2023-03-24T10:29:13.029Z,1940.00
2023-03-24T10:30:13.041Z,1888.00
2023-03-24T10:31:13.006Z,1856.00
2023-03-24T10:32:12.982Z,1904.00
2023-03-24T10:33:12.977Z,1824.00
2023-03-24T10:34:12.965Z,1296.00
2023-03-24T10:35:13.033Z,1152.00
2023-03-24T10:36:12.975Z,1172.00
2023-03-24T10:37:12.920Z,1100.00
2023-03-24T10:38:12.908Z,1148.00
2023-03-24T10:39:19.630Z,1276.00
2023-03-24T10:40:13.900Z,1388.00
2023-03-24T10:41:12.884Z,1436.00
2023-03-24T10:42:12.902Z,1556.00
2023-03-24T10:43:12.880Z,1604.00
2023-03-24T10:44:12.842Z,1708.00
2023-03-24T10:45:12.818Z,1776.00
2023-03-24T10:46:12.844Z,1724.00
2023-03-24T10:47:12.798Z,1760.00
2023-03-24T10:48:12.862Z,1280.00
2023-03-24T10:49:12.794Z,1096.00
2023-03-24T10:50:15.198Z,956.00
2023-03-24T10:51:12.741Z,888.00
2023-03-24T10:52:12.768Z,776.00
2023-03-24T10:53:12.719Z,940.00
2023-03-24T10:54:12.710Z,1328.00
2023-03-24T10:55:12.697Z,1516.00
2023-03-24T10:56:12.694Z,996.00
2023-03-24T10:57:12.691Z,772.00
2023-03-24T10:58:12.678Z,996.00
2023-03-24T10:59:12.660Z,904.00
2023-03-24T11:00:12.643Z,512.00
2023-03-24T11:01:12.636Z,476.00
2023-03-24T11:02:12.624Z,472.00
2023-03-24T11:03:12.741Z,552.00
2023-03-24T11:04:12.588Z,572.00
2023-03-24T11:05:12.630Z,660.00
2023-03-24T11:06:12.559Z,784.00
2023-03-24T11:07:12.565Z,776.00
2023-03-24T11:08:12.545Z,588.00
2023-03-24T11:09:12.538Z,792.00
2023-03-24T11:10:12.489Z,788.00
2023-03-24T11:11:12.502Z,876.00
2023-03-24T11:12:12.485Z,1120.00
2023-03-24T11:13:12.479Z,884.00
2023-03-24T11:14:12.574Z,956.00
2023-03-24T11:15:20.203Z,1100.00
2023-03-24T11:16:13.477Z,832.00
2023-03-24T11:17:12.421Z,960.00
2023-03-24T11:18:12.399Z,1044.00
2023-03-24T11:19:12.413Z,1048.00
2023-03-24T11:20:12.367Z,708.00
2023-03-24T11:21:12.363Z,584.00
2023-03-24T11:22:12.337Z,540.00
2023-03-24T11:23:12.330Z,444.00
2023-03-24T11:24:12.335Z,396.00
2023-03-24T11:25:12.297Z,456.00
2023-03-24T11:26:12.325Z,656.00
2023-03-24T11:27:12.265Z,848.00
2023-03-24T11:28:12.277Z,796.00
2023-03-24T11:29:12.249Z,1044.00
2023-03-24T11:30:12.241Z,1176.00
2023-03-24T11:31:12.268Z,1084.00
2023-03-24T11:32:12.228Z,804.00
2023-03-24T11:33:12.210Z,892.00
2023-03-24T11:34:12.194Z,1020.00
2023-03-24T11:35:12.185Z,952.00
2023-03-24T11:36:12.621Z,1024.00
2023-03-24T11:37:12.156Z,1156.00
2023-03-24T11:38:12.181Z,1408.00
2023-03-24T11:39:12.117Z,1528.00
2023-03-24T11:40:12.124Z,1516.00
2023-03-24T11:41:12.121Z,1148.00
2023-03-24T11:42:12.163Z,1300.00
2023-03-24T11:43:12.069Z,1008.00
2023-03-24T11:44:12.058Z,764.00
2023-03-24T11:45:12.053Z,712.00
2023-03-24T11:46:12.110Z,976.00
2023-03-24T11:47:12.028Z,724.00
2023-03-24T11:48:12.092Z,572.00
2023-03-24T11:49:11.985Z,880.00
2023-03-24T11:50:12.063Z,852.00
2023-03-24T11:51:12.001Z,728.00
2023-03-24T11:52:11.973Z,564.00
2023-03-24T11:53:11.946Z,896.00
2023-03-24T11:54:11.949Z,1708.00
2023-03-24T11:55:11.923Z,1532.00
2023-03-24T11:56:11.924Z,1556.00
2023-03-24T11:57:11.953Z,1320.00
2023-03-24T11:58:11.909Z,1008.00
2023-03-24T11:59:11.870Z,792.00
2023-03-24T12:00:11.882Z,1068.00
2023-03-24T12:01:11.887Z,1296.00
2023-03-24T12:02:11.867Z,1336.00
2023-03-24T12:03:11.973Z,1280.00
2023-03-24T12:04:11.817Z,1260.00
2023-03-24T12:05:11.819Z,1204.00
2023-03-24T12:06:11.883Z,1000.00
2023-03-24T12:07:11.769Z,900.00
2023-03-24T12:08:11.766Z,888.00
2023-03-24T12:09:11.804Z,820.00
2023-03-24T12:10:11.732Z,728.00
2023-03-24T12:11:11.736Z,936.00
2023-03-24T12:12:11.745Z,820.00
2023-03-24T12:13:22.083Z,736.00
2023-03-24T12:14:12.715Z,500.00
2023-03-24T12:15:24.712Z,448.00
2023-03-24T12:16:12.715Z,552.00
2023-03-24T12:17:11.644Z,688.00
2023-03-24T12:18:11.689Z,844.00
2023-03-24T12:19:11.635Z,892.00
2023-03-24T12:20:11.617Z,664.00
2023-03-24T12:21:11.617Z,736.00
2023-03-24T12:22:11.582Z,804.00
2023-03-24T12:23:11.566Z,840.00
2023-03-24T12:24:11.573Z,1424.00
2023-03-24T12:25:11.546Z,2116.00
2023-03-24T12:26:11.544Z,1648.00
2023-03-24T12:27:11.533Z,1388.00
2023-03-24T12:28:11.530Z,1180.00
2023-03-24T12:29:11.518Z,744.00
2023-03-24T12:30:11.503Z,600.00
2023-03-24T12:31:11.540Z,724.00
2023-03-24T12:32:11.473Z,876.00
2023-03-24T12:33:11.447Z,832.00
2023-03-24T12:34:11.436Z,748.00
2023-03-24T12:35:11.411Z,780.00
2023-03-24T12:36:11.453Z,624.00
2023-03-24T12:37:11.404Z,480.00
2023-03-24T12:38:11.376Z,492.00
2023-03-24T12:39:11.366Z,640.00
2023-03-24T12:40:11.568Z,1032.00
2023-03-24T12:41:11.344Z,1748.00
2023-03-24T12:42:11.350Z,3092.00
2023-03-24T12:43:11.309Z,2656.00
2023-03-24T12:44:11.327Z,1264.00
2023-03-24T12:45:11.285Z,1012.00
2023-03-24T12:46:11.354Z,1144.00
2023-03-24T12:47:11.280Z,1128.00
2023-03-24T12:48:11.259Z,1256.00
2023-03-24T12:49:11.252Z,1264.00
2023-03-24T12:50:11.228Z,1032.00
2023-03-24T12:51:11.212Z,1008.00
2023-03-24T12:52:11.237Z,1084.00
2023-03-24T12:53:13.579Z,1292.00
2023-03-24T12:54:11.171Z,1600.00
2023-03-24T12:55:11.181Z,1464.00
2023-03-24T12:56:11.155Z,1612.00
2023-03-24T12:57:11.194Z,1504.00
2023-03-24T12:58:11.125Z,1260.00
2023-03-24T12:59:11.120Z,1220.00
2023-03-24T13:00:11.107Z,1800.00
2023-03-24T13:01:11.109Z,2372.00
2023-03-24T13:02:11.137Z,2172.00
2023-03-24T13:03:11.094Z,3028.00
2023-03-24T13:04:11.056Z,3968.00
2023-03-24T13:05:11.040Z,1744.00
2023-03-24T13:06:16.956Z,1416.00
2023-03-24T13:07:12.034Z,984.00
2023-03-24T13:08:10.998Z,844.00
2023-03-24T13:09:11.058Z,924.00
2023-03-24T13:10:10.983Z,712.00
2023-03-24T13:11:16.787Z,552.00
2023-03-24T13:12:11.980Z,416.00
2023-03-24T13:13:10.967Z,472.00
2023-03-24T13:14:10.932Z,428.00